Terminal Aerodrome Forecast
Issued by NWS Wilmington, NC

Home | Current Version | Previous Version | Text Only | Print | Product List | Glossary On
Versions: 1 2 3 4 5 6 7 8 9 10 11 12 13 14 15 16 17 18 19 20 21 22 23 24 25 26 27 28 29 30
000
FTUS42 KILM 162300
TAFMYR
TAF
KMYR 162320Z 1700/1724 18003KT P6SM FEW030 SCT100
      TEMPO 1705/1709 4SM BR
     FM170900 03004KT 6SM BR FEW008 BKN100
     FM171300 06006KT P6SM BKN020
     FM171700 10008KT P6SM SCT020 BKN040
      AMD LTD TO CLD VIS AND WIND 1704/1711=

USA.gov is the U.S. government's official web portal to all federal, state and local government web resources and services.